createdAt,value
2024-03-26T00:08:03.686Z,53.5
2024-03-26T00:13:03.698Z,53.2
2024-03-26T00:23:03.695Z,52.4
2024-03-26T00:28:03.686Z,52.8
2024-03-26T00:33:03.704Z,52.7
2024-03-26T00:48:03.690Z,52.9
2024-03-26T00:53:03.700Z,52.7
2024-03-26T01:03:03.684Z,52.6
2024-03-26T01:08:03.688Z,52.5
2024-03-26T01:18:03.709Z,52.3
2024-03-26T01:23:03.694Z,52.8
2024-03-26T01:33:03.726Z,52.3
2024-03-26T01:38:03.720Z,52.5
2024-03-26T01:48:03.702Z,52.4
2024-03-26T01:58:03.719Z,52.7
2024-03-26T02:08:03.701Z,52.3
2024-03-26T02:23:03.712Z,52.3
2024-03-26T02:33:03.730Z,52.3
2024-03-26T02:48:03.730Z,51.9
2024-03-26T02:53:03.736Z,51.9
2024-03-26T02:58:03.723Z,52.7
2024-03-26T03:03:03.727Z,51.8
2024-03-26T03:08:03.743Z,52.1
2024-03-26T03:18:03.725Z,52.5
2024-03-26T03:28:03.777Z,52.2
2024-03-26T03:38:03.731Z,52.1
2024-03-26T03:43:03.727Z,51.3
2024-03-26T03:53:03.740Z,51
2024-03-26T03:58:03.752Z,51.1
2024-03-26T04:13:03.739Z,51.5
2024-03-26T04:18:03.741Z,51.3
2024-03-26T04:28:03.750Z,51.3
2024-03-26T04:38:03.737Z,51.5
2024-03-26T04:43:03.739Z,51.3
2024-03-26T04:48:03.791Z,51.4
2024-03-26T04:58:03.750Z,51.5
2024-03-26T05:08:03.778Z,51.5
2024-03-26T05:18:03.746Z,51.6
2024-03-26T05:28:03.773Z,51.9
2024-03-26T05:33:03.788Z,51.9
2024-03-26T05:43:03.770Z,51.5
2024-03-26T05:48:03.763Z,51.4
2024-03-26T05:53:03.764Z,51.5
2024-03-26T06:03:03.775Z,51.7
2024-03-26T06:13:04.311Z,51.5
2024-03-26T06:18:03.798Z,51.9
2024-03-26T06:28:03.788Z,51.8
2024-03-26T06:33:03.783Z,51.9
2024-03-26T06:43:03.809Z,51.9
2024-03-26T06:53:03.892Z,51.9
2024-03-26T07:03:03.822Z,52
2024-03-26T07:13:03.827Z,52.4
2024-03-26T07:23:03.806Z,52.5
2024-03-26T07:28:03.831Z,52.6
2024-03-26T07:33:03.821Z,52.6
2024-03-26T07:43:13.006Z,52.7
2024-03-26T07:48:03.827Z,52.9
2024-03-26T07:58:03.972Z,52.2
2024-03-26T08:03:03.944Z,51.3
2024-03-26T08:13:03.864Z,51.1
2024-03-26T08:18:03.871Z,51.6
2024-03-26T08:23:03.957Z,52.4
2024-03-26T08:33:04.039Z,51.6
2024-03-26T08:38:03.860Z,51.8
2024-03-26T08:48:03.883Z,51.9
2024-03-26T08:53:03.834Z,51.9
2024-03-26T09:03:03.958Z,51.3
2024-03-26T09:13:03.859Z,51.3
2024-03-26T09:23:03.855Z,51.7
2024-03-26T09:33:03.895Z,52.1
2024-03-26T09:38:03.859Z,52.1
2024-03-26T10:03:03.903Z,52.3
2024-03-26T10:18:03.896Z,52.4
2024-03-26T10:28:03.901Z,52.5
2024-03-26T10:38:13.027Z,52.2
2024-03-26T10:43:03.913Z,52.1
2024-03-26T10:48:03.968Z,52.3
2024-03-26T10:53:03.920Z,52.4
2024-03-26T10:58:03.917Z,52.5
2024-03-26T11:08:05.123Z,52.3
2024-03-26T11:13:03.922Z,52.1
2024-03-26T11:23:03.922Z,52.3
2024-03-26T11:28:03.939Z,52
2024-03-26T11:38:03.924Z,51.7
2024-03-26T11:43:03.943Z,51.6
2024-03-26T11:53:03.934Z,52
2024-03-26T11:58:03.913Z,52.3
2024-03-26T12:08:03.923Z,52.6
2024-03-26T12:18:03.948Z,52.3
2024-03-26T12:28:03.943Z,52.7
2024-03-26T12:38:03.932Z,52.7
2024-03-26T12:48:03.992Z,53
2024-03-26T12:58:03.964Z,53.1
2024-03-26T13:13:03.957Z,53.3
2024-03-26T13:23:03.954Z,53.8
2024-03-26T13:28:03.958Z,53.5
2024-03-26T13:38:03.955Z,53
2024-03-26T13:48:04.091Z,52.7
2024-03-26T13:53:03.970Z,52.3
2024-03-26T14:03:04.002Z,52.6
2024-03-26T14:23:03.962Z,52.4
2024-03-26T14:28:03.971Z,52.7
2024-03-26T14:33:03.977Z,52.4
2024-03-26T14:43:03.970Z,52.5
2024-03-26T14:53:03.980Z,52.6
2024-03-26T15:03:03.985Z,52.6
2024-03-26T15:08:03.974Z,53.7
2024-03-26T15:18:03.986Z,52.9
2024-03-26T15:33:03.979Z,53.2
2024-03-26T15:38:04.004Z,53.4
2024-03-26T15:48:03.976Z,53.4
2024-03-26T16:23:04.013Z,53
2024-03-26T16:33:03.989Z,53
2024-03-26T16:38:04.013Z,52.8
2024-03-26T16:48:03.995Z,52.4
2024-03-26T16:53:04.018Z,53.2
2024-03-26T17:03:04.004Z,54.3
2024-03-26T17:13:03.995Z,54.3
2024-03-26T17:23:04.002Z,53.5
2024-03-26T17:28:04.000Z,53.2
2024-03-26T17:33:04.024Z,53.5
2024-03-26T18:06:05.658Z,54.8
2024-03-26T18:21:05.642Z,53.9
2024-03-26T18:41:05.638Z,53.7
2024-03-26T18:46:05.650Z,54.2
2024-03-26T18:51:05.656Z,54
2024-03-26T18:56:05.660Z,53.5
2024-03-26T19:06:05.646Z,53.8
2024-03-26T19:11:05.669Z,53.7
2024-03-26T19:21:05.664Z,53.9
2024-03-26T19:26:05.794Z,53.8
2024-03-26T19:31:05.778Z,53.6
2024-03-26T19:41:05.676Z,53.3
2024-03-26T19:46:05.654Z,53.6
2024-03-26T19:51:05.678Z,53.4
2024-03-26T20:01:05.679Z,54
2024-03-26T20:11:05.680Z,53.5
2024-03-26T20:16:05.684Z,53.3
2024-03-26T20:26:05.669Z,53.3
2024-03-26T20:31:12.227Z,53.2
2024-03-26T20:41:05.708Z,52.7
2024-03-26T20:51:05.686Z,53.1
2024-03-26T21:01:05.679Z,53.6
2024-03-26T21:06:05.692Z,53.6
2024-03-26T21:11:05.694Z,53.4
2024-03-26T21:21:05.698Z,53.6
2024-03-26T21:26:05.704Z,53.2
2024-03-26T21:36:05.710Z,53.3
2024-03-26T21:41:08.178Z,53.6
2024-03-26T21:46:05.701Z,53.9
2024-03-26T21:56:05.689Z,54
2024-03-26T22:01:05.683Z,54.1
2024-03-26T22:06:05.709Z,54
2024-03-26T22:16:05.709Z,54.2
2024-03-26T22:31:05.714Z,53.9
2024-03-26T22:41:05.713Z,54.2
2024-03-26T22:46:05.715Z,54.3
2024-03-26T22:56:05.685Z,54.1
2024-03-26T23:01:05.738Z,54
2024-03-26T23:06:05.726Z,53.7
2024-03-26T23:16:05.725Z,54.2
2024-03-26T23:21:05.713Z,54.1
2024-03-26T23:41:05.729Z,53.9
2024-03-26T23:46:05.724Z,53.9
2024-03-26T23:51:05.730Z,54.1
